< < Back
Terminal Aerodrome Forecast


Current Version              Previous Versions:   1  2  3  4  5  6  7  8  9  

Terminal Aerodrome Forecast

911
FTUS42 KCHS 052330
TAFCHS
TAF
KCHS 052330Z 0600/0624 28010G20KT 6SM -RA SCT007 BKN015 OVC035
      TEMPO 0600/0603 2SM RA BR BKN007 OVC012
     FM060300 01015G23KT 5SM -RADZ BR BKN005 OVC011
     FM061400 02012G18KT P6SM SCT010 BKN025=



Latest METAR

016
SAUS80 KWBC 060900 RRB
MTRCHS
METAR KCHS 060856Z 04012KT 9SM OVC012 04/03 A3029 RMK AO2 DZE0758 SLP257
P0000 60000 T00440028 51013


USA.gov is the U.S. government's official web portal to all federal, state and local government web resources and services.